Terminal Aerodrome Forecast
Issued by NWS

Current Version | Previous Version | Text Only | Print | Product List | Glossary On
Versions: 1 2 3 4 5 6 7 8 9 10 11 12 13 14 15 16 17 18 19 20 21 22 23
000
FTUS46 KEKA 270037 AAA
TAFCEC
TAF AMD
KCEC 270037Z 2701/2724 33008KT 2SM BR OVC002
      TEMPO 2701/2705 1/2SM FG VV001
     FM270900 00000KT 1SM BR OVC002
     FM271200 00000KT 1/2SM FG VV001
     FM271600 VRB03KT 2SM BR OVC002
     FM272000 20006KT P6SM OVC005=

USA.gov is the U.S. government's official web portal to all federal, state and local government web resources and services.